createdAt,value
2022-10-16T00:01:55.675Z,99.90
2022-10-16T00:04:26.898Z,99.90
2022-10-16T00:06:56.816Z,99.90
2022-10-16T00:09:27.421Z,99.90
2022-10-16T00:11:56.259Z,99.90
2022-10-16T00:14:25.194Z,99.90
2022-10-16T00:16:54.429Z,99.90
2022-10-16T00:19:23.445Z,99.90
2022-10-16T00:21:54.007Z,99.90
2022-10-16T00:24:23.398Z,99.90
2022-10-16T00:26:53.701Z,99.90
2022-10-16T00:29:22.461Z,99.90
2022-10-16T00:31:51.705Z,99.90
2022-10-16T00:34:20.934Z,99.90
2022-10-16T00:36:49.895Z,99.90
2022-10-16T00:39:21.920Z,99.90
2022-10-16T00:41:50.946Z,99.90
2022-10-16T00:44:45.053Z,99.90
2022-10-16T00:47:18.327Z,99.90
2022-10-16T00:49:49.141Z,99.90
2022-10-16T00:52:19.305Z,99.90
2022-10-16T00:54:52.066Z,99.90
2022-10-16T00:57:21.362Z,99.90
2022-10-16T00:59:50.585Z,99.90
2022-10-16T01:02:20.412Z,99.90
2022-10-16T01:04:52.302Z,99.90
2022-10-16T01:07:33.681Z,99.90
2022-10-16T01:10:12.165Z,99.90
2022-10-16T01:12:48.038Z,99.90
2022-10-16T01:15:21.311Z,99.90
2022-10-16T01:17:56.253Z,99.90
2022-10-16T01:20:32.081Z,99.90
2022-10-16T01:23:10.440Z,99.90
2022-10-16T01:26:02.496Z,99.90
2022-10-16T01:28:37.171Z,99.90
2022-10-16T01:31:07.085Z,99.90
2022-10-16T01:33:42.014Z,99.90
2022-10-16T01:36:15.739Z,99.90
2022-10-16T01:38:49.525Z,99.90
2022-10-16T01:41:26.377Z,99.90
2022-10-16T01:44:04.150Z,99.90
2022-10-16T01:46:35.053Z,99.90
2022-10-16T01:49:06.160Z,99.90
2022-10-16T01:51:37.629Z,99.90
2022-10-16T01:54:10.542Z,99.90
2022-10-16T01:56:40.858Z,99.90
2022-10-16T01:59:15.693Z,99.90
2022-10-16T02:01:49.803Z,99.90
2022-10-16T02:04:23.708Z,99.90
2022-10-16T02:06:53.159Z,99.90
2022-10-16T02:09:22.220Z,99.90
2022-10-16T02:11:53.496Z,99.90
2022-10-16T02:14:26.007Z,99.90
2022-10-16T02:16:55.700Z,99.90
2022-10-16T02:19:25.572Z,99.90
2022-10-16T02:21:59.243Z,99.90
2022-10-16T02:24:36.084Z,99.90
2022-10-16T02:27:12.054Z,99.90
2022-10-16T02:29:49.463Z,99.90
2022-10-16T02:32:24.013Z,99.90
2022-10-16T02:34:54.471Z,99.90
2022-10-16T02:37:24.190Z,99.90
2022-10-16T02:39:54.070Z,99.90
2022-10-16T02:42:23.544Z,99.90
2022-10-16T02:44:53.766Z,99.90
2022-10-16T02:47:22.875Z,99.90
2022-10-16T02:49:52.054Z,99.90
2022-10-16T02:52:21.083Z,99.90
2022-10-16T02:54:50.090Z,99.90
2022-10-16T02:57:19.272Z,99.90
2022-10-16T02:59:48.597Z,99.90
2022-10-16T03:02:19.875Z,99.90
2022-10-16T03:04:49.010Z,99.90
2022-10-16T03:07:18.106Z,99.90
2022-10-16T03:09:47.439Z,99.90
2022-10-16T03:12:17.062Z,99.90
2022-10-16T03:14:46.167Z,99.90
2022-10-16T03:17:18.065Z,99.90
2022-10-16T03:19:49.146Z,99.90
2022-10-16T03:22:18.379Z,99.90
2022-10-16T03:24:47.756Z,99.90
2022-10-16T03:27:17.317Z,99.90
2022-10-16T03:29:46.396Z,99.90
2022-10-16T03:32:15.750Z,99.90
2022-10-16T03:34:45.021Z,99.90
2022-10-16T03:37:15.669Z,99.90
2022-10-16T03:39:44.427Z,99.90
2022-10-16T03:42:13.965Z,99.90
2022-10-16T03:44:42.833Z,99.90
2022-10-16T03:47:12.043Z,99.90
2022-10-16T03:49:40.968Z,99.90
2022-10-16T03:52:09.911Z,99.90
2022-10-16T03:54:40.861Z,99.90
2022-10-16T03:57:10.376Z,99.90
2022-10-16T03:59:39.606Z,99.90
2022-10-16T04:02:08.817Z,99.90
2022-10-16T04:04:38.077Z,99.90
2022-10-16T04:07:07.136Z,99.90
2022-10-16T04:09:37.421Z,99.90
2022-10-16T04:12:08.116Z,99.90
2022-10-16T04:14:37.696Z,99.90
2022-10-16T04:17:06.724Z,99.90
2022-10-16T04:19:36.021Z,99.90
2022-10-16T04:22:05.660Z,99.90
2022-10-16T04:24:34.950Z,99.90
2022-10-16T04:27:04.089Z,99.90
2022-10-16T04:29:34.574Z,99.90
2022-10-16T04:32:03.681Z,99.90
2022-10-16T04:34:33.284Z,99.90
2022-10-16T04:37:02.328Z,99.90
2022-10-16T04:39:31.532Z,99.90
2022-10-16T04:42:00.782Z,99.90
2022-10-16T04:44:30.148Z,99.90
2022-10-16T04:47:01.664Z,99.90
2022-10-16T04:49:30.687Z,99.90
2022-10-16T04:51:59.866Z,99.90
2022-10-16T04:54:29.184Z,99.90
2022-10-16T04:56:58.187Z,99.90
2022-10-16T04:59:27.413Z,99.90
2022-10-16T05:01:56.139Z,99.90
2022-10-16T05:04:26.883Z,99.90
2022-10-16T05:06:56.939Z,99.90
2022-10-16T05:09:26.287Z,99.90
2022-10-16T05:11:55.883Z,99.90
2022-10-16T05:14:24.951Z,99.90
2022-10-16T05:16:53.953Z,99.90
2022-10-16T05:19:27.255Z,99.90
2022-10-16T05:21:58.895Z,99.90
2022-10-16T05:24:28.487Z,99.90
2022-10-16T05:26:57.966Z,99.90
2022-10-16T05:29:27.351Z,99.90
2022-10-16T05:31:56.723Z,99.90
2022-10-16T05:34:25.808Z,99.90
2022-10-16T05:36:54.835Z,99.90
2022-10-16T05:39:25.581Z,99.90
2022-10-16T05:41:54.625Z,99.90
2022-10-16T05:44:23.765Z,99.90
2022-10-16T05:46:52.792Z,99.90
2022-10-16T05:49:21.838Z,99.90
2022-10-16T05:51:50.639Z,99.90
2022-10-16T05:54:19.779Z,99.90
2022-10-16T05:56:50.691Z,99.90
2022-10-16T05:59:19.930Z,99.90
2022-10-16T06:01:48.998Z,99.90
2022-10-16T06:04:19.489Z,99.90
2022-10-16T06:06:48.626Z,99.90
2022-10-16T06:09:18.119Z,99.90
2022-10-16T06:11:47.595Z,99.90
2022-10-16T06:14:18.590Z,99.90
2022-10-16T06:16:48.623Z,99.90
2022-10-16T06:19:17.846Z,99.90
2022-10-16T06:21:47.450Z,99.90
2022-10-16T06:24:16.678Z,99.90
2022-10-16T06:26:46.111Z,99.90
2022-10-16T06:29:16.018Z,99.90
2022-10-16T06:31:47.555Z,99.90
2022-10-16T06:34:17.669Z,99.90
2022-10-16T06:36:46.667Z,99.90
2022-10-16T06:39:16.270Z,99.90
2022-10-16T06:41:45.441Z,99.90
2022-10-16T06:44:19.539Z,99.90
2022-10-16T06:46:50.917Z,99.90
2022-10-16T06:49:23.965Z,99.90
2022-10-16T06:51:53.081Z,99.90
2022-10-16T06:54:22.101Z,99.90
2022-10-16T06:56:51.345Z,99.90
2022-10-16T06:59:21.069Z,99.90
2022-10-16T07:01:52.156Z,99.90
2022-10-16T07:04:21.266Z,99.90
2022-10-16T07:06:50.179Z,99.90
2022-10-16T07:09:19.580Z,99.90
2022-10-16T07:11:48.980Z,99.90
2022-10-16T07:14:20.829Z,99.90
2022-10-16T07:16:51.589Z,99.90
2022-10-16T07:19:20.840Z,99.90
2022-10-16T07:21:50.555Z,99.90
2022-10-16T07:24:20.168Z,99.90
2022-10-16T07:26:49.765Z,99.90
2022-10-16T07:29:26.452Z,99.90
2022-10-16T07:31:57.938Z,99.90
2022-10-16T07:34:28.856Z,99.90
2022-10-16T07:36:58.103Z,99.90
2022-10-16T07:39:27.591Z,99.90
2022-10-16T07:41:57.376Z,99.90
2022-10-16T07:44:27.003Z,99.90
2022-10-16T07:46:58.975Z,99.90
2022-10-16T07:49:29.920Z,99.90
2022-10-16T07:51:59.215Z,99.90
2022-10-16T07:54:28.854Z,99.90
2022-10-16T07:56:58.511Z,99.90
2022-10-16T07:59:27.705Z,99.90
2022-10-16T08:01:59.259Z,99.90
2022-10-16T08:04:28.749Z,99.90
2022-10-16T08:06:58.720Z,99.90
2022-10-16T08:09:42.771Z,99.90
2022-10-16T08:12:13.007Z,99.90
2022-10-16T08:14:47.067Z,99.90
2022-10-16T08:17:19.350Z,99.90
2022-10-16T08:19:49.453Z,99.90
2022-10-16T08:22:19.682Z,99.90
2022-10-16T08:24:50.941Z,99.90
2022-10-16T08:27:22.180Z,99.90
2022-10-16T08:29:54.070Z,99.90
2022-10-16T08:32:27.464Z,99.90
2022-10-16T08:34:58.018Z,99.90
2022-10-16T08:37:28.163Z,99.90
2022-10-16T08:39:57.887Z,99.90
2022-10-16T08:42:51.712Z,99.90
2022-10-16T08:45:37.436Z,99.90
2022-10-16T08:48:24.612Z,99.90
2022-10-16T08:50:56.207Z,99.90
2022-10-16T08:53:31.548Z,99.90
2022-10-16T08:56:01.538Z,99.90
2022-10-16T08:58:33.168Z,99.90
2022-10-16T09:01:06.455Z,99.90
2022-10-16T09:17:37.350Z,99.90
2022-10-16T09:20:26.718Z,99.90
2022-10-16T09:23:10.802Z,99.90
2022-10-16T09:25:41.710Z,99.90
2022-10-16T09:28:11.906Z,99.90
2022-10-16T09:30:41.602Z,99.90
2022-10-16T09:33:14.629Z,99.90
2022-10-16T09:35:47.057Z,99.90
2022-10-16T09:38:27.729Z,99.90
2022-10-16T09:41:03.193Z,99.90
2022-10-16T09:43:37.664Z,99.90
2022-10-16T09:46:08.597Z,99.90
2022-10-16T09:48:45.269Z,99.90
2022-10-16T09:51:21.592Z,99.90
2022-10-16T09:53:50.666Z,99.90
2022-10-16T09:56:27.427Z,99.90
2022-10-16T09:58:58.436Z,99.90
2022-10-16T10:01:32.658Z,99.90
2022-10-16T10:04:04.089Z,99.90
2022-10-16T10:06:35.467Z,99.90
2022-10-16T10:09:17.844Z,99.90
2022-10-16T10:11:52.210Z,99.90
2022-10-16T10:14:34.721Z,97.20
2022-10-16T10:17:16.024Z,94.10
2022-10-16T10:19:49.900Z,88.00
2022-10-16T10:22:22.792Z,88.00
2022-10-16T10:24:58.947Z,84.00
2022-10-16T10:27:38.043Z,81.70
2022-10-16T10:30:13.038Z,75.10
2022-10-16T10:32:50.127Z,76.20
2022-10-16T10:35:25.303Z,70.60
2022-10-16T10:38:13.729Z,69.60
2022-10-16T10:40:54.754Z,72.00
2022-10-16T10:43:41.034Z,70.70
2022-10-16T10:46:16.567Z,70.90
2022-10-16T10:48:56.876Z,67.40
2022-10-16T10:51:38.430Z,64.40
2022-10-16T10:54:17.091Z,63.90
2022-10-16T10:56:51.322Z,64.90
2022-10-16T10:59:39.643Z,64.10
2022-10-16T11:02:17.289Z,62.90
2022-10-16T11:05:02.722Z,61.50
2022-10-16T11:07:36.283Z,63.20
2022-10-16T11:10:07.438Z,64.30
2022-10-16T11:12:41.297Z,61.70
2022-10-16T11:15:18.346Z,62.60
2022-10-16T11:17:53.218Z,63.10
2022-10-16T11:20:25.396Z,63.90
2022-10-16T11:23:02.317Z,63.20
2022-10-16T11:25:32.317Z,62.70
2022-10-16T11:28:06.069Z,66.00
2022-10-16T11:30:46.066Z,62.30
2022-10-16T11:33:28.774Z,61.30
2022-10-16T11:36:03.790Z,61.80
2022-10-16T11:38:40.685Z,65.40
2022-10-16T11:41:18.653Z,70.20
2022-10-16T11:43:55.318Z,71.40
2022-10-16T11:46:26.636Z,70.80
2022-10-16T11:49:03.100Z,70.00
2022-10-16T11:51:38.788Z,65.50
2022-10-16T11:54:19.525Z,65.10
2022-10-16T11:56:50.637Z,64.50
2022-10-16T11:59:27.391Z,65.10
2022-10-16T12:02:09.780Z,67.00
2022-10-16T12:04:46.753Z,66.20
2022-10-16T12:07:24.145Z,68.60
2022-10-16T12:09:54.200Z,72.40
2022-10-16T12:12:29.322Z,76.40
2022-10-16T12:15:17.813Z,78.50
2022-10-16T12:17:51.068Z,79.70
2022-10-16T12:20:31.384Z,80.80
2022-10-16T12:23:02.428Z,80.80
2022-10-16T12:25:34.775Z,83.50
2022-10-16T12:28:05.874Z,85.20
2022-10-16T12:30:37.631Z,84.90
2022-10-16T12:33:08.371Z,86.00
2022-10-16T12:35:46.132Z,87.60
2022-10-16T12:38:21.017Z,88.20
2022-10-16T12:41:00.236Z,89.90
2022-10-16T12:43:41.065Z,90.60
2022-10-16T12:46:26.323Z,91.50
2022-10-16T12:49:06.744Z,92.20
2022-10-16T12:51:38.484Z,92.60
2022-10-16T12:54:15.835Z,93.20
2022-10-16T12:56:54.930Z,93.50
2022-10-16T12:59:35.001Z,93.70
2022-10-16T13:02:27.235Z,94.30
2022-10-16T13:05:13.931Z,94.10
2022-10-16T13:08:03.362Z,94.00
2022-10-16T13:10:40.111Z,94.40
2022-10-16T13:13:36.180Z,94.70
2022-10-16T13:16:21.335Z,94.40
2022-10-16T13:19:03.260Z,95.30
2022-10-16T13:21:48.542Z,95.50
2022-10-16T13:24:37.651Z,96.10
2022-10-16T13:27:14.962Z,96.30
2022-10-16T13:29:45.799Z,97.00
2022-10-16T13:32:18.215Z,96.70
2022-10-16T13:34:50.414Z,96.60
2022-10-16T13:37:24.986Z,97.10
2022-10-16T13:40:05.811Z,97.00
2022-10-16T13:42:36.543Z,96.70
2022-10-16T13:45:09.306Z,96.40
2022-10-16T13:47:40.687Z,96.90
2022-10-16T13:50:15.620Z,95.50
2022-10-16T13:52:45.217Z,95.00
2022-10-16T13:55:15.830Z,94.70
2022-10-16T13:57:46.070Z,92.30
2022-10-16T14:00:26.420Z,90.60
2022-10-16T14:03:02.056Z,87.60
2022-10-16T14:05:31.823Z,86.10
2022-10-16T14:08:27.150Z,83.30
2022-10-16T14:11:03.254Z,82.10
2022-10-16T14:13:36.973Z,79.90
2022-10-16T14:16:11.375Z,82.00
2022-10-16T14:18:42.787Z,83.20
2022-10-16T14:21:16.646Z,84.50
2022-10-16T14:23:46.741Z,83.00
2022-10-16T14:26:18.026Z,85.60
2022-10-16T14:28:48.726Z,88.10
2022-10-16T14:31:31.317Z,88.40
2022-10-16T14:34:01.017Z,88.60
2022-10-16T14:36:32.425Z,90.30
2022-10-16T14:39:07.497Z,91.70
2022-10-16T14:41:49.713Z,92.70
2022-10-16T14:44:21.241Z,93.60
2022-10-16T14:46:52.209Z,94.50
2022-10-16T14:49:23.361Z,95.00
2022-10-16T14:51:53.519Z,95.40
2022-10-16T14:54:22.849Z,95.40
2022-10-16T14:56:54.728Z,96.10
2022-10-16T14:59:30.546Z,96.50
2022-10-16T15:02:01.670Z,96.70
2022-10-16T15:04:31.668Z,97.10
2022-10-16T15:07:00.945Z,97.00
2022-10-16T15:09:30.742Z,96.80
2022-10-16T15:12:00.304Z,96.60
2022-10-16T15:14:29.796Z,96.50
2022-10-16T15:17:01.037Z,97.10
2022-10-16T15:19:31.076Z,98.00
2022-10-16T15:22:01.513Z,98.50
2022-10-16T15:24:30.920Z,99.80
2022-10-16T15:27:00.388Z,99.90
2022-10-16T15:29:30.691Z,99.90
2022-10-16T15:32:02.155Z,99.90
2022-10-16T15:34:32.879Z,99.90
2022-10-16T15:37:06.227Z,99.90
2022-10-16T15:39:40.491Z,99.90
2022-10-16T15:42:11.894Z,99.90
2022-10-16T15:44:41.513Z,99.90
2022-10-16T15:47:14.619Z,99.90
2022-10-16T15:49:44.711Z,99.90
2022-10-16T15:52:14.204Z,99.90
2022-10-16T15:54:51.768Z,99.90
2022-10-16T15:57:25.507Z,99.90
2022-10-16T16:02:28.180Z,99.90
2022-10-16T16:04:57.821Z,99.90
2022-10-16T16:07:26.803Z,99.90
2022-10-16T16:09:57.279Z,99.90
2022-10-16T16:12:26.431Z,99.90
2022-10-16T16:14:56.746Z,99.90
2022-10-16T16:17:28.094Z,99.90
2022-10-16T16:20:00.461Z,99.90
2022-10-16T16:22:30.391Z,99.90
2022-10-16T16:25:01.887Z,99.90
2022-10-16T16:27:35.056Z,99.90
2022-10-16T16:30:05.339Z,99.90
2022-10-16T16:32:37.082Z,99.90
2022-10-16T16:35:09.013Z,99.90
2022-10-16T16:37:38.797Z,99.90
2022-10-16T16:40:08.911Z,99.90
2022-10-16T16:42:38.945Z,99.90
2022-10-16T16:45:14.021Z,99.90
2022-10-16T16:47:45.193Z,99.90
2022-10-16T16:50:21.242Z,99.90
2022-10-16T16:52:54.137Z,99.90
2022-10-16T16:55:27.186Z,99.90
2022-10-16T16:58:07.205Z,99.90
2022-10-16T17:00:47.453Z,99.90
2022-10-16T17:03:28.657Z,99.90
2022-10-16T17:06:01.693Z,99.90
2022-10-16T17:08:32.168Z,99.90
2022-10-16T17:11:02.616Z,99.90
2022-10-16T17:13:36.077Z,99.90
2022-10-16T17:16:10.441Z,99.90
2022-10-16T17:18:42.170Z,99.90
2022-10-16T17:21:13.062Z,99.90
2022-10-16T17:23:42.901Z,99.90
2022-10-16T17:26:14.801Z,99.90
2022-10-16T17:28:47.740Z,99.90
2022-10-16T17:31:19.281Z,99.90
2022-10-16T17:34:00.388Z,99.90
2022-10-16T17:36:31.870Z,99.90
2022-10-16T17:39:08.064Z,99.90
2022-10-16T17:41:41.541Z,99.90
2022-10-16T17:44:11.633Z,99.90
2022-10-16T17:46:50.038Z,99.90
2022-10-16T17:49:22.049Z,99.90
2022-10-16T17:51:53.564Z,99.90
2022-10-16T17:54:24.310Z,99.90
2022-10-16T17:56:56.525Z,99.90
2022-10-16T17:59:26.757Z,99.90
2022-10-16T18:01:56.711Z,99.90
2022-10-16T18:04:28.513Z,99.90
2022-10-16T18:06:58.628Z,99.90
2022-10-16T18:09:28.475Z,99.90
2022-10-16T18:12:02.079Z,99.90
2022-10-16T18:14:33.980Z,99.90
2022-10-16T18:17:04.237Z,99.90
2022-10-16T18:19:36.696Z,99.90
2022-10-16T18:22:08.789Z,99.90
2022-10-16T18:24:38.785Z,99.90
2022-10-16T18:27:08.175Z,99.90
2022-10-16T18:29:39.820Z,99.90
2022-10-16T18:32:11.832Z,99.90
2022-10-16T18:34:43.328Z,99.90
2022-10-16T18:37:14.866Z,99.90
2022-10-16T18:39:48.275Z,99.90
2022-10-16T18:42:18.907Z,99.90
2022-10-16T18:44:51.873Z,99.90
2022-10-16T18:47:23.217Z,99.90
2022-10-16T18:50:21.556Z,99.90
2022-10-16T18:52:52.076Z,99.90
2022-10-16T18:55:21.972Z,99.90
2022-10-16T18:57:51.795Z,99.90
2022-10-16T19:00:21.388Z,99.90
2022-10-16T19:02:51.458Z,99.90
2022-10-16T19:05:26.120Z,99.90
2022-10-16T19:07:56.619Z,99.90
2022-10-16T19:10:29.565Z,99.90
2022-10-16T19:13:06.372Z,99.90
2022-10-16T19:15:49.803Z,99.90
2022-10-16T19:18:28.430Z,99.90
2022-10-16T19:21:04.609Z,99.90
2022-10-16T19:23:38.122Z,99.90
2022-10-16T19:26:09.332Z,99.90
2022-10-16T19:28:40.126Z,99.90
2022-10-16T19:31:13.003Z,99.90
2022-10-16T19:33:44.280Z,99.90
2022-10-16T19:36:18.851Z,99.90
2022-10-16T19:38:49.934Z,99.90
2022-10-16T19:41:21.906Z,99.90
2022-10-16T19:43:51.842Z,99.90
2022-10-16T19:46:24.143Z,99.90
2022-10-16T19:48:57.609Z,99.90
2022-10-16T19:51:30.006Z,99.90
2022-10-16T19:54:00.924Z,99.90
2022-10-16T19:56:32.798Z,99.90
2022-10-16T19:59:03.911Z,99.90
2022-10-16T20:01:34.864Z,99.90
2022-10-16T20:04:04.522Z,99.90
2022-10-16T20:06:35.911Z,99.90
2022-10-16T20:09:06.782Z,99.90
2022-10-16T20:11:40.786Z,99.90
2022-10-16T20:14:10.741Z,99.90
2022-10-16T20:16:41.158Z,99.90
2022-10-16T20:19:12.348Z,99.90
2022-10-16T20:21:45.014Z,99.90
2022-10-16T20:24:16.242Z,99.90
2022-10-16T20:26:46.037Z,99.90
2022-10-16T20:29:15.481Z,99.90
2022-10-16T20:31:45.186Z,99.90
2022-10-16T20:34:15.476Z,99.90
2022-10-16T20:36:47.429Z,99.90
2022-10-16T20:39:17.736Z,99.90
2022-10-16T20:41:47.905Z,99.90
2022-10-16T20:44:17.585Z,99.90
2022-10-16T20:46:48.147Z,99.90
2022-10-16T20:49:35.833Z,99.90
2022-10-16T20:52:09.060Z,99.90
2022-10-16T20:54:39.008Z,99.90
2022-10-16T20:57:09.098Z,99.90
2022-10-16T20:59:39.127Z,99.90
2022-10-16T21:02:13.382Z,99.90
2022-10-16T21:04:44.116Z,99.90
2022-10-16T21:07:15.376Z,99.90
2022-10-16T21:09:45.496Z,99.90
2022-10-16T21:12:14.974Z,99.90
2022-10-16T21:15:02.486Z,99.90
2022-10-16T21:17:34.771Z,99.90
2022-10-16T21:20:04.300Z,99.90
2022-10-16T21:22:35.305Z,99.90
2022-10-16T21:25:05.212Z,99.90
2022-10-16T21:27:38.741Z,99.90
2022-10-16T21:30:12.315Z,99.90
2022-10-16T21:32:42.191Z,99.90
2022-10-16T21:35:11.591Z,99.90
2022-10-16T21:37:42.815Z,99.90
2022-10-16T21:40:12.889Z,99.90
2022-10-16T21:42:42.343Z,99.90
2022-10-16T21:45:12.019Z,99.90
2022-10-16T21:47:41.219Z,99.90
2022-10-16T21:50:11.168Z,99.90
2022-10-16T21:52:40.447Z,99.90
2022-10-16T21:55:12.347Z,99.90
2022-10-16T21:57:41.216Z,99.90
2022-10-16T22:00:12.593Z,99.90
2022-10-16T22:02:41.805Z,99.90
2022-10-16T22:05:11.155Z,99.90
2022-10-16T22:07:40.364Z,99.90
2022-10-16T22:10:13.511Z,99.90
2022-10-16T22:12:42.774Z,99.90
2022-10-16T22:15:13.286Z,99.90
2022-10-16T22:17:42.923Z,99.90
2022-10-16T22:20:13.482Z,99.90
2022-10-16T22:22:45.470Z,99.90
2022-10-16T22:25:16.562Z,99.90
2022-10-16T22:27:46.027Z,99.90
2022-10-16T22:30:15.290Z,99.90
2022-10-16T22:32:44.762Z,99.90
2022-10-16T22:35:13.898Z,99.90
2022-10-16T22:37:42.922Z,99.90
2022-10-16T22:40:13.530Z,99.90
2022-10-16T22:42:44.036Z,99.90
2022-10-16T22:45:13.414Z,99.90
2022-10-16T22:47:43.107Z,99.90
2022-10-16T22:50:12.382Z,99.90
2022-10-16T22:52:41.789Z,99.90
2022-10-16T22:55:11.590Z,99.90
2022-10-16T22:57:41.005Z,99.90
2022-10-16T23:00:16.081Z,99.90
2022-10-16T23:02:45.344Z,99.90
2022-10-16T23:05:15.462Z,99.90
2022-10-16T23:07:47.004Z,99.90
2022-10-16T23:10:16.243Z,99.90
2022-10-16T23:12:46.950Z,99.90
2022-10-16T23:15:19.418Z,99.90
2022-10-16T23:17:48.358Z,99.90
2022-10-16T23:20:17.614Z,99.90
2022-10-16T23:22:46.773Z,99.90
2022-10-16T23:25:15.858Z,99.90
2022-10-16T23:27:45.502Z,99.90
2022-10-16T23:30:14.654Z,99.90
2022-10-16T23:32:45.402Z,99.90
2022-10-16T23:35:14.941Z,99.90
2022-10-16T23:37:44.127Z,99.90
2022-10-16T23:40:14.877Z,99.90
2022-10-16T23:42:44.456Z,99.90
2022-10-16T23:45:13.202Z,99.90
2022-10-16T23:47:42.437Z,99.90
2022-10-16T23:50:14.067Z,99.90
2022-10-16T23:52:43.357Z,99.90
2022-10-16T23:55:14.378Z,99.90
2022-10-16T23:57:43.517Z,99.90
